createdAt,value
2023-07-17T00:00:14.201Z,100304.09
2023-07-17T00:02:46.029Z,100290.06
2023-07-17T00:05:18.030Z,100313.06
2023-07-17T00:07:49.933Z,100282.44
2023-07-17T00:10:21.751Z,100289.94
2023-07-17T00:12:53.540Z,100310.09
2023-07-17T00:15:25.399Z,100300.88
2023-07-17T00:17:57.194Z,100262.47
2023-07-17T00:20:29.044Z,100285.97
2023-07-17T00:23:01.063Z,100306.72
2023-07-17T00:25:32.906Z,100289.00
2023-07-17T00:28:04.735Z,100310.44
2023-07-17T00:30:36.592Z,100287.53
2023-07-17T00:33:08.532Z,100296.84
2023-07-17T00:35:40.344Z,100238.88
2023-07-17T00:38:12.131Z,100295.28
2023-07-17T00:40:44.314Z,100321.38
2023-07-17T00:43:16.221Z,100246.72
2023-07-17T00:45:48.915Z,100295.63
2023-07-17T00:48:20.806Z,100292.91
2023-07-17T00:50:52.932Z,100280.78
2023-07-17T00:53:24.693Z,100322.72
2023-07-17T00:55:56.580Z,100309.94
2023-07-17T00:58:28.408Z,100314.84
2023-07-17T01:01:00.272Z,100279.56
2023-07-17T01:03:33.281Z,100298.88
2023-07-17T01:06:05.791Z,100296.41
2023-07-17T01:08:37.656Z,100300.59
2023-07-17T01:11:10.264Z,100312.72
2023-07-17T01:13:50.335Z,100265.53
2023-07-17T01:16:22.106Z,100304.31
2023-07-17T01:18:53.958Z,100296.00
2023-07-17T01:21:32.581Z,100319.84
2023-07-17T01:24:04.616Z,100308.63
2023-07-17T01:26:36.380Z,100272.94
2023-07-17T01:29:08.200Z,100250.78
2023-07-17T01:31:41.440Z,100289.03
2023-07-17T01:34:13.248Z,100300.59
2023-07-17T01:36:45.133Z,100283.78
2023-07-17T01:39:16.965Z,100302.88
2023-07-17T01:41:48.841Z,100263.06
2023-07-17T01:44:20.688Z,100303.63
2023-07-17T01:46:52.491Z,100281.88
2023-07-17T01:49:24.347Z,100300.00
2023-07-17T01:51:56.186Z,100302.06
2023-07-17T01:54:27.944Z,100278.75
2023-07-17T01:56:59.743Z,100290.91
2023-07-17T01:59:31.624Z,100301.16
2023-07-17T02:02:04.444Z,100324.84
2023-07-17T02:04:36.369Z,100313.19
2023-07-17T02:07:08.160Z,100297.09
2023-07-17T02:09:40.108Z,100311.59
2023-07-17T02:12:11.888Z,100259.44
2023-07-17T02:14:43.686Z,100306.84
2023-07-17T02:17:15.506Z,100292.91
2023-07-17T02:19:47.268Z,100283.25
2023-07-17T02:22:19.039Z,100313.50
2023-07-17T02:24:50.816Z,100311.63
2023-07-17T02:27:22.738Z,100311.31
2023-07-17T02:29:55.388Z,100319.84
2023-07-17T02:32:29.708Z,100314.28
2023-07-17T02:35:01.522Z,100338.50
2023-07-17T02:37:33.598Z,100308.72
2023-07-17T02:40:15.180Z,100327.84
2023-07-17T02:42:46.981Z,100328.16
2023-07-17T02:45:19.193Z,100344.28
2023-07-17T02:47:51.196Z,100348.25
2023-07-17T02:50:23.081Z,100347.94
2023-07-17T02:52:54.965Z,100342.69
2023-07-17T02:55:26.987Z,100357.66
2023-07-17T02:57:58.837Z,100358.78
2023-07-17T03:00:30.648Z,100357.19
2023-07-17T03:03:07.098Z,100368.66
2023-07-17T03:05:39.107Z,100367.34
2023-07-17T03:08:11.539Z,100310.13
2023-07-17T03:10:43.367Z,100366.81
2023-07-17T03:13:15.232Z,100340.50
2023-07-17T03:15:49.047Z,100359.38
2023-07-17T03:18:20.858Z,100332.06
2023-07-17T03:20:52.862Z,100373.13
2023-07-17T03:23:24.666Z,100350.13
2023-07-17T03:25:59.460Z,100358.94
2023-07-17T03:28:31.501Z,100335.22
2023-07-17T03:31:03.468Z,100343.53
2023-07-17T03:33:35.652Z,100352.41
2023-07-17T03:36:08.122Z,100360.84
2023-07-17T03:38:39.883Z,100364.44
2023-07-17T03:41:11.671Z,100353.13
2023-07-17T03:43:43.448Z,100323.19
2023-07-17T03:46:15.601Z,100360.66
2023-07-17T03:48:47.386Z,100373.31
2023-07-17T03:51:19.334Z,100381.03
2023-07-17T03:53:54.307Z,100386.47
2023-07-17T03:56:26.254Z,100385.91
2023-07-17T03:58:58.035Z,100380.72
2023-07-17T04:01:30.778Z,100363.56
2023-07-17T04:04:02.667Z,100359.81
2023-07-17T04:06:34.478Z,100374.91
2023-07-17T04:09:06.262Z,100374.25
2023-07-17T04:11:38.030Z,100351.81
2023-07-17T04:14:10.331Z,100344.91
2023-07-17T04:16:42.137Z,100349.38
2023-07-17T04:19:14.061Z,100309.34
2023-07-17T04:21:45.807Z,100364.91
2023-07-17T04:24:17.665Z,100362.84
2023-07-17T04:26:49.544Z,100368.41
2023-07-17T04:29:24.712Z,100379.34
2023-07-17T04:31:56.579Z,100351.88
2023-07-17T04:34:30.191Z,100378.72
2023-07-17T04:37:01.999Z,100368.66
2023-07-17T04:39:34.167Z,100378.38
2023-07-17T04:42:06.096Z,100380.63
2023-07-17T04:44:37.880Z,100374.78
2023-07-17T04:47:09.757Z,100384.94
2023-07-17T04:49:41.668Z,100378.63
2023-07-17T04:52:13.469Z,100341.31
2023-07-17T04:54:45.217Z,100385.94
2023-07-17T04:57:17.154Z,100394.44
2023-07-17T04:59:48.929Z,100374.38
2023-07-17T05:02:21.028Z,100367.41
2023-07-17T05:04:52.885Z,100382.34
2023-07-17T05:07:24.686Z,100385.72
2023-07-17T05:09:56.518Z,100381.47
2023-07-17T05:12:29.235Z,100385.59
2023-07-17T05:15:01.068Z,100390.88
2023-07-17T05:17:32.946Z,100399.19
2023-07-17T05:20:08.059Z,100368.66
2023-07-17T05:22:39.901Z,100424.75
2023-07-17T05:25:11.737Z,100409.56
2023-07-17T05:27:43.549Z,100399.34
2023-07-17T05:30:15.545Z,100400.78
2023-07-17T05:32:47.386Z,100398.94
2023-07-17T05:35:19.463Z,100412.34
2023-07-17T05:37:51.322Z,100408.13
2023-07-17T05:40:23.212Z,100400.56
2023-07-17T05:42:55.211Z,100426.28
2023-07-17T05:45:26.980Z,100427.28
2023-07-17T05:47:58.799Z,100418.00
2023-07-17T05:50:30.601Z,100429.69
2023-07-17T05:53:02.408Z,100431.34
2023-07-17T05:55:34.175Z,100419.78
2023-07-17T05:58:05.924Z,100386.88
2023-07-17T06:00:37.729Z,100418.63
2023-07-17T06:03:09.567Z,100417.38
2023-07-17T06:05:41.465Z,100405.31
2023-07-17T06:08:13.237Z,100412.84
2023-07-17T06:10:45.076Z,100399.41
2023-07-17T06:13:17.914Z,100393.88
2023-07-17T06:15:49.729Z,100414.72
2023-07-17T06:18:21.581Z,100406.13
2023-07-17T06:20:53.397Z,100408.38
2023-07-17T06:23:25.277Z,100393.66
2023-07-17T06:25:57.486Z,100399.38
2023-07-17T06:28:30.812Z,100400.81
2023-07-17T06:31:02.612Z,100402.44
2023-07-17T06:33:37.280Z,100383.63
2023-07-17T06:36:09.212Z,100391.38
2023-07-17T06:38:41.109Z,100383.66
2023-07-17T06:41:12.871Z,100390.53
2023-07-17T06:43:44.814Z,100379.00
2023-07-17T06:46:18.245Z,100377.50
2023-07-17T06:48:50.261Z,100383.31
2023-07-17T06:51:22.052Z,100384.63
2023-07-17T06:53:54.799Z,100408.03
2023-07-17T06:56:26.582Z,100411.84
2023-07-17T06:58:58.812Z,100400.28
2023-07-17T07:01:30.611Z,100410.41
2023-07-17T07:04:02.481Z,100395.69
2023-07-17T07:06:34.360Z,100422.56
2023-07-17T07:09:06.162Z,100400.09
2023-07-17T07:11:37.974Z,100427.66
2023-07-17T07:14:09.751Z,100411.03
2023-07-17T07:16:41.601Z,100426.84
2023-07-17T07:19:13.461Z,100432.81
2023-07-17T07:21:45.335Z,100425.84
2023-07-17T07:24:17.160Z,100410.59
2023-07-17T07:26:49.046Z,100432.75
2023-07-17T07:29:20.844Z,100408.53
2023-07-17T07:31:52.858Z,100429.31
2023-07-17T07:34:24.909Z,100432.91
2023-07-17T07:36:56.692Z,100449.44
2023-07-17T07:39:28.470Z,100428.41
2023-07-17T07:42:00.338Z,100422.75
2023-07-17T07:44:32.109Z,100431.59
2023-07-17T07:47:03.967Z,100451.38
2023-07-17T07:49:35.912Z,100439.06
2023-07-17T07:52:08.251Z,100455.72
2023-07-17T07:54:40.066Z,100396.72
2023-07-17T07:57:12.078Z,100427.13
2023-07-17T07:59:43.859Z,100434.41
2023-07-17T08:02:15.796Z,100439.84
2023-07-17T08:04:47.683Z,100424.53
2023-07-17T08:07:19.498Z,100429.53
2023-07-17T08:09:52.687Z,100437.50
2023-07-17T08:12:24.550Z,100429.53
2023-07-17T08:14:56.330Z,100417.56
2023-07-17T08:17:28.165Z,100423.75
2023-07-17T08:19:59.982Z,100430.28
2023-07-17T08:22:31.776Z,100437.66
2023-07-17T08:25:04.073Z,100454.22
2023-07-17T08:27:35.895Z,100429.84
2023-07-17T08:30:08.480Z,100415.13
2023-07-17T08:32:40.395Z,100439.69
2023-07-17T08:35:12.327Z,100429.47
2023-07-17T08:37:44.124Z,100411.84
2023-07-17T08:40:15.939Z,100418.81
2023-07-17T08:42:51.292Z,100416.69
2023-07-17T08:45:24.604Z,100396.28
2023-07-17T08:47:56.814Z,100435.91
2023-07-17T08:50:30.094Z,100427.31
2023-07-17T08:53:02.141Z,100419.53
2023-07-17T08:55:34.109Z,100397.28
2023-07-17T08:58:06.209Z,100428.31
2023-07-17T09:00:38.304Z,100418.63
2023-07-17T09:03:10.208Z,100395.16
2023-07-17T09:05:44.544Z,100425.94
2023-07-17T09:08:16.541Z,100428.63
2023-07-17T09:11:09.854Z,100421.03
2023-07-17T09:13:44.174Z,100410.88
2023-07-17T09:16:16.902Z,100404.34
2023-07-17T09:18:50.231Z,100383.47
2023-07-17T09:21:24.285Z,100393.69
2023-07-17T09:23:57.978Z,100397.19
2023-07-17T09:26:30.678Z,100391.38
2023-07-17T09:29:02.552Z,100375.38
2023-07-17T09:31:34.329Z,100383.66
2023-07-17T09:34:14.612Z,100390.69
2023-07-17T09:36:51.482Z,100380.31
2023-07-17T09:39:23.782Z,100375.28
2023-07-17T09:41:55.550Z,100367.63
2023-07-17T09:44:28.431Z,100339.75
2023-07-17T09:47:01.388Z,100357.09
2023-07-17T09:49:33.284Z,100338.75
2023-07-17T09:52:05.529Z,100335.03
2023-07-17T09:54:39.952Z,100350.81
2023-07-17T09:57:21.497Z,100341.16
2023-07-17T09:59:55.988Z,100352.78
2023-07-17T10:02:57.320Z,100344.84
2023-07-17T10:05:30.006Z,100302.88
2023-07-17T10:08:06.816Z,100344.06
2023-07-17T10:10:39.049Z,100355.25
2023-07-17T10:13:12.356Z,100353.22
2023-07-17T10:15:47.080Z,100357.88
2023-07-17T10:18:18.863Z,100352.44
2023-07-17T10:20:55.446Z,100354.09
2023-07-17T10:23:28.862Z,100340.25
2023-07-17T10:26:09.489Z,100340.84
2023-07-17T10:28:42.742Z,100330.16
2023-07-17T10:31:20.844Z,100350.16
2023-07-17T10:33:57.089Z,100331.84
2023-07-17T10:36:44.381Z,100303.75
2023-07-17T10:39:20.752Z,100341.38
2023-07-17T10:41:52.732Z,100320.47
2023-07-17T10:44:24.630Z,100333.84
2023-07-17T10:46:56.576Z,100328.41
2023-07-17T10:49:28.371Z,100307.56
2023-07-17T10:52:00.139Z,100321.81
2023-07-17T10:54:31.963Z,100334.38
2023-07-17T10:57:04.456Z,100315.75
2023-07-17T10:59:36.996Z,100295.03
2023-07-17T11:02:08.908Z,100288.03
2023-07-17T11:04:40.721Z,100325.91
2023-07-17T11:07:13.211Z,100330.94
2023-07-17T11:09:45.840Z,100323.97
2023-07-17T11:12:20.377Z,100304.81
2023-07-17T11:14:55.208Z,100306.06
2023-07-17T11:17:27.147Z,100313.66
2023-07-17T11:20:04.952Z,100278.75
2023-07-17T11:22:38.192Z,100279.31
2023-07-17T11:25:12.249Z,100265.28
2023-07-17T11:27:44.414Z,100285.25
2023-07-17T11:30:27.423Z,100262.91
2023-07-17T11:32:59.313Z,100273.88
2023-07-17T11:35:42.038Z,100271.22
2023-07-17T11:38:17.090Z,100268.28
2023-07-17T11:40:59.734Z,100270.53
2023-07-17T11:43:38.983Z,100271.69
2023-07-17T11:46:11.232Z,100270.75
2023-07-17T11:48:46.033Z,100266.41
2023-07-17T11:51:18.073Z,100261.44
2023-07-17T11:53:57.341Z,100285.34
2023-07-17T11:56:41.216Z,100289.97
2023-07-17T11:59:25.718Z,100298.81
2023-07-17T12:01:57.750Z,100307.94
2023-07-17T12:04:33.755Z,100298.19
2023-07-17T12:07:06.067Z,100301.53
2023-07-17T12:09:37.870Z,100312.72
2023-07-17T12:12:10.231Z,100287.78
2023-07-17T12:14:42.142Z,100305.44
2023-07-17T12:17:14.232Z,100277.34
2023-07-17T12:19:46.029Z,100301.13
2023-07-17T12:24:52.800Z,100291.31
2023-07-17T12:27:26.292Z,100276.41
2023-07-17T12:30:00.597Z,100250.81
2023-07-17T12:32:32.407Z,100283.03
2023-07-17T12:35:04.461Z,100254.09
2023-07-17T12:37:37.000Z,100270.22
2023-07-17T12:40:09.491Z,100250.59
2023-07-17T12:42:41.504Z,100262.69
2023-07-17T12:45:13.432Z,100258.41
2023-07-17T12:47:46.090Z,100262.09
2023-07-17T12:50:18.118Z,100269.59
2023-07-17T12:52:49.914Z,100252.59
2023-07-17T12:55:23.205Z,100263.16
2023-07-17T12:57:55.701Z,100270.28
2023-07-17T13:00:27.812Z,100269.47
2023-07-17T13:02:59.836Z,100251.53
2023-07-17T13:05:31.730Z,100243.06
2023-07-17T13:08:04.517Z,100271.50
2023-07-17T13:10:36.683Z,100247.44
2023-07-17T13:13:08.457Z,100228.28
2023-07-17T13:15:40.285Z,100239.53
2023-07-17T13:18:12.181Z,100224.56
2023-07-17T13:20:44.326Z,100246.53
2023-07-17T13:23:16.262Z,100246.66
2023-07-17T13:25:48.198Z,100240.59
2023-07-17T13:28:20.093Z,100249.66
2023-07-17T13:31:07.411Z,100248.03
2023-07-17T13:33:41.713Z,100238.97
2023-07-17T13:36:13.575Z,100232.47
2023-07-17T13:38:45.514Z,100233.03
2023-07-17T13:41:49.388Z,100229.22
2023-07-17T13:44:22.053Z,100229.91
2023-07-17T13:46:53.982Z,100207.28
2023-07-17T13:49:25.815Z,100222.16
2023-07-17T13:51:57.660Z,100242.06
2023-07-17T13:54:29.625Z,100231.00
2023-07-17T13:57:03.212Z,100226.03
2023-07-17T13:59:35.255Z,100219.16
2023-07-17T14:02:07.369Z,100200.88
2023-07-17T14:04:41.005Z,100209.78
2023-07-17T14:07:13.065Z,100202.72
2023-07-17T14:09:44.863Z,100172.53
2023-07-17T14:12:16.720Z,100214.38
2023-07-17T14:14:48.491Z,100162.91
2023-07-17T14:17:20.476Z,100177.00
2023-07-17T14:19:52.290Z,100186.31
2023-07-17T14:22:24.313Z,100181.41
2023-07-17T14:24:56.463Z,100189.41
2023-07-17T14:27:28.618Z,100196.44
2023-07-17T14:30:00.417Z,100212.75
2023-07-17T14:32:32.289Z,100189.06
2023-07-17T14:35:04.303Z,100204.72
2023-07-17T14:37:36.293Z,100219.56
2023-07-17T14:40:08.760Z,100216.75
2023-07-17T14:42:40.583Z,100226.84
2023-07-17T14:45:12.471Z,100196.81
2023-07-17T14:47:44.454Z,100231.84
2023-07-17T14:50:21.288Z,100231.31
2023-07-17T14:52:53.295Z,100242.16
2023-07-17T14:55:25.619Z,100234.44
2023-07-17T14:57:57.432Z,100231.03
2023-07-17T15:00:29.272Z,100203.50
2023-07-17T15:03:01.254Z,100228.81
2023-07-17T15:05:33.101Z,100237.03
2023-07-17T15:08:05.073Z,100220.88
2023-07-17T15:10:37.046Z,100204.97
2023-07-17T15:13:09.119Z,100203.66
2023-07-17T15:15:41.003Z,100196.69
2023-07-17T15:18:12.811Z,100193.25
2023-07-17T15:20:44.596Z,100194.00
2023-07-17T15:23:16.614Z,100196.66
2023-07-17T15:25:48.879Z,100159.03
2023-07-17T15:28:20.783Z,100179.25
2023-07-17T15:30:52.584Z,100189.13
2023-07-17T15:33:26.856Z,100180.25
2023-07-17T15:35:58.745Z,100183.94
2023-07-17T15:38:30.500Z,100190.00
2023-07-17T15:41:02.311Z,100168.56
2023-07-17T15:43:34.645Z,100186.97
2023-07-17T15:46:06.532Z,100191.88
2023-07-17T15:48:38.296Z,100175.41
2023-07-17T15:51:10.148Z,100170.53
2023-07-17T15:53:42.069Z,100155.66
2023-07-17T15:56:13.916Z,100159.19
2023-07-17T15:58:45.771Z,100153.72
2023-07-17T16:01:18.766Z,100166.59
2023-07-17T16:03:50.679Z,100148.78
2023-07-17T16:06:22.485Z,100140.69
2023-07-17T16:08:54.261Z,100148.25
2023-07-17T16:11:26.089Z,100139.53
2023-07-17T16:13:57.900Z,100130.56
2023-07-17T16:16:29.769Z,100141.84
2023-07-17T16:19:01.564Z,100139.50
2023-07-17T16:21:33.474Z,100142.78
2023-07-17T16:24:05.544Z,100147.28
2023-07-17T16:26:37.352Z,100128.56
2023-07-17T16:29:09.129Z,100135.28
2023-07-17T16:31:41.415Z,100122.75
2023-07-17T16:34:13.241Z,100130.44
2023-07-17T16:36:46.255Z,100121.84
2023-07-17T16:39:18.579Z,100093.13
2023-07-17T16:41:50.419Z,100075.41
2023-07-17T16:44:22.330Z,100089.56
2023-07-17T16:46:54.190Z,100110.75
2023-07-17T16:49:26.002Z,100094.44
2023-07-17T16:51:57.812Z,100097.03
2023-07-17T16:54:29.728Z,100126.75
2023-07-17T16:57:01.671Z,100116.91
2023-07-17T16:59:33.477Z,100138.81
2023-07-17T17:02:05.855Z,100109.84
2023-07-17T17:04:37.709Z,100121.84
2023-07-17T17:07:09.564Z,100126.28
2023-07-17T17:09:41.395Z,100147.25
2023-07-17T17:12:13.331Z,100137.06
2023-07-17T17:14:45.307Z,100134.84
2023-07-17T17:17:17.437Z,100141.03
2023-07-17T17:19:49.298Z,100134.97
2023-07-17T17:22:21.325Z,100153.34
2023-07-17T17:24:53.158Z,100157.59
2023-07-17T17:27:26.847Z,100104.88
2023-07-17T17:30:01.221Z,100145.16
2023-07-17T17:32:33.586Z,100140.72
2023-07-17T17:35:06.635Z,100151.75
2023-07-17T17:37:38.493Z,100120.22
2023-07-17T17:40:10.512Z,100149.63
2023-07-17T17:42:42.433Z,100178.22
2023-07-17T17:45:15.622Z,100141.50
2023-07-17T17:47:47.682Z,100186.63
2023-07-17T17:50:19.531Z,100174.78
2023-07-17T17:52:52.014Z,100154.19
2023-07-17T17:55:23.829Z,100171.94
2023-07-17T17:57:55.627Z,100184.81
2023-07-17T18:00:27.413Z,100179.09
2023-07-17T18:02:59.546Z,100207.69
2023-07-17T18:05:31.565Z,100167.66
2023-07-17T18:08:03.749Z,100177.84
2023-07-17T18:10:36.314Z,100186.47
2023-07-17T18:13:08.151Z,100208.28
2023-07-17T18:15:40.262Z,100164.84
2023-07-17T18:18:14.317Z,100183.59
2023-07-17T18:20:46.891Z,100164.41
2023-07-17T18:23:18.860Z,100155.63
2023-07-17T18:25:50.657Z,100178.69
2023-07-17T18:28:22.460Z,100161.94
2023-07-17T18:30:54.315Z,100164.00
2023-07-17T18:33:26.971Z,100145.84
2023-07-17T18:35:59.143Z,100159.50
2023-07-17T18:38:30.916Z,100166.03
2023-07-17T18:41:03.652Z,100155.22
2023-07-17T18:43:35.453Z,100153.59
2023-07-17T18:46:07.325Z,100176.06
2023-07-17T18:48:39.288Z,100109.06
2023-07-17T18:51:11.397Z,100164.56
2023-07-17T18:53:43.225Z,100163.91
2023-07-17T18:56:15.237Z,100155.75
2023-07-17T18:58:47.029Z,100174.16
2023-07-17T19:01:19.189Z,100176.38
2023-07-17T19:03:52.418Z,100162.09
2023-07-17T19:06:24.270Z,100152.50
2023-07-17T19:08:56.801Z,100174.31
2023-07-17T19:11:28.596Z,100160.84
2023-07-17T19:14:00.381Z,100167.34
2023-07-17T19:16:32.307Z,100153.44
2023-07-17T19:19:04.342Z,100167.16
2023-07-17T19:21:37.103Z,100173.69
2023-07-17T19:24:08.912Z,100145.28
2023-07-17T19:26:40.881Z,100163.69
2023-07-17T19:29:12.686Z,100171.22
2023-07-17T19:31:44.594Z,100187.50
2023-07-17T19:34:19.374Z,100189.97
2023-07-17T19:36:51.240Z,100167.69
2023-07-17T19:39:23.692Z,100186.69
2023-07-17T19:41:55.496Z,100176.66
2023-07-17T19:44:27.269Z,100197.50
2023-07-17T19:47:00.783Z,100197.91
2023-07-17T19:49:33.611Z,100186.03
2023-07-17T19:52:06.167Z,100191.53
2023-07-17T19:54:37.962Z,100188.69
2023-07-17T19:57:09.751Z,100143.25
2023-07-17T19:59:41.508Z,100181.94
2023-07-17T20:02:13.292Z,100197.00
2023-07-17T20:04:45.142Z,100179.03
2023-07-17T20:07:16.996Z,100163.03
2023-07-17T20:09:49.362Z,100153.66
2023-07-17T20:12:21.714Z,100133.19
2023-07-17T20:14:53.471Z,100145.84
2023-07-17T20:17:26.578Z,100188.38
2023-07-17T20:19:58.398Z,100183.22
2023-07-17T20:22:30.245Z,100176.50
2023-07-17T20:25:02.047Z,100191.63
2023-07-17T20:27:39.759Z,100194.03
2023-07-17T20:30:13.894Z,100174.44
2023-07-17T20:32:45.847Z,100181.78
2023-07-17T20:35:27.323Z,100166.69
2023-07-17T20:38:00.645Z,100179.13
2023-07-17T20:40:33.685Z,100153.50
2023-07-17T20:43:05.527Z,100179.03
2023-07-17T20:45:49.714Z,100171.88
2023-07-17T20:48:22.135Z,100180.44
2023-07-17T20:51:10.711Z,100150.63
2023-07-17T20:53:43.317Z,100165.59
2023-07-17T20:56:15.760Z,100181.63
2023-07-17T20:58:47.631Z,100144.50
2023-07-17T21:01:24.690Z,100176.56
2023-07-17T21:03:58.756Z,100168.63
2023-07-17T21:06:31.063Z,100155.16
2023-07-17T21:09:03.000Z,100181.06
2023-07-17T21:11:34.775Z,100156.25
2023-07-17T21:14:06.607Z,100169.72
2023-07-17T21:16:38.415Z,100172.75
2023-07-17T21:19:10.173Z,100171.75
2023-07-17T21:21:42.179Z,100159.22
2023-07-17T21:24:14.026Z,100149.09
2023-07-17T21:26:45.817Z,100146.22
2023-07-17T21:29:17.586Z,100147.50
2023-07-17T21:31:49.369Z,100160.16
2023-07-17T21:34:21.157Z,100142.31
2023-07-17T21:36:52.911Z,100177.69
2023-07-17T21:39:25.338Z,100173.84
2023-07-17T21:41:57.204Z,100166.84
2023-07-17T21:44:29.176Z,100147.06
2023-07-17T21:47:01.036Z,100155.69
2023-07-17T21:49:32.897Z,100169.06
2023-07-17T21:52:05.003Z,100155.47
2023-07-17T21:54:36.813Z,100180.34
2023-07-17T21:57:08.606Z,100154.50
2023-07-17T21:59:43.357Z,100180.16
2023-07-17T22:02:15.151Z,100154.16
2023-07-17T22:04:47.275Z,100112.25
2023-07-17T22:07:19.041Z,100168.53
2023-07-17T22:09:52.211Z,100175.81
2023-07-17T22:12:23.975Z,100177.81
2023-07-17T22:14:55.978Z,100188.75
2023-07-17T22:17:27.866Z,100190.00
2023-07-17T22:20:01.240Z,100157.19
2023-07-17T22:22:33.214Z,100165.78
2023-07-17T22:25:05.443Z,100166.97
2023-07-17T22:27:37.237Z,100152.69
2023-07-17T22:30:09.791Z,100163.75
2023-07-17T22:32:42.075Z,100168.91
2023-07-17T22:35:13.905Z,100178.00
2023-07-17T22:37:45.675Z,100178.81
2023-07-17T22:40:17.485Z,100153.25
2023-07-17T22:42:50.210Z,100189.06
2023-07-17T22:45:22.035Z,100171.75
2023-07-17T22:47:56.185Z,100113.41
2023-07-17T22:50:28.050Z,100169.22
2023-07-17T22:52:59.969Z,100192.88
2023-07-17T22:55:32.366Z,100169.03
2023-07-17T22:58:04.169Z,100185.88
2023-07-17T23:00:35.986Z,100185.59
2023-07-17T23:03:07.940Z,100206.16
2023-07-17T23:05:39.911Z,100204.59
2023-07-17T23:08:11.741Z,100196.19
2023-07-17T23:10:43.508Z,100188.28
2023-07-17T23:13:16.105Z,100203.59
2023-07-17T23:15:48.032Z,100198.75
2023-07-17T23:18:20.923Z,100177.06
2023-07-17T23:20:52.835Z,100185.28
2023-07-17T23:23:24.737Z,100174.06
2023-07-17T23:25:56.526Z,100188.16
2023-07-17T23:28:28.323Z,100170.13
2023-07-17T23:31:00.093Z,100165.47
2023-07-17T23:33:31.933Z,100166.31
2023-07-17T23:36:04.071Z,100160.81
2023-07-17T23:38:36.834Z,100170.84
2023-07-17T23:41:09.109Z,100152.63
2023-07-17T23:43:40.941Z,100174.19
2023-07-17T23:46:12.784Z,100171.78
2023-07-17T23:48:45.887Z,100168.56
2023-07-17T23:51:19.724Z,100199.81
2023-07-17T23:53:51.723Z,100165.91
2023-07-17T23:56:23.551Z,100183.31
2023-07-17T23:58:55.330Z,100175.56
